createdAt,value
2018-12-23T00:00:21.753Z,8.5
2018-12-23T00:01:21.588Z,8.56
2018-12-23T00:02:21.589Z,8.56
2018-12-23T00:03:21.708Z,8.63
2018-12-23T00:05:41.459Z,8.57
2018-12-23T00:06:41.514Z,8.54
2018-12-23T00:07:41.499Z,8.54
2018-12-23T00:08:41.497Z,8.59
2018-12-23T00:09:41.457Z,8.68
2018-12-23T00:10:41.459Z,8.71
2018-12-23T00:11:41.519Z,8.68
2018-12-23T00:12:41.470Z,8.72
2018-12-23T00:13:41.424Z,8.61
2018-12-23T00:14:41.444Z,8.68
2018-12-23T00:15:41.447Z,8.66
2018-12-23T00:16:41.467Z,8.56
2018-12-23T00:17:41.453Z,8.63
2018-12-23T00:18:41.498Z,8.52
2018-12-23T00:19:41.478Z,8.6
2018-12-23T00:20:41.524Z,8.59
2018-12-23T00:21:41.466Z,8.64
2018-12-23T00:22:41.490Z,8.57
2018-12-23T00:23:41.494Z,8.63
2018-12-23T00:24:41.466Z,8.63
2018-12-23T00:25:41.503Z,8.56
2018-12-23T00:26:41.447Z,8.53
2018-12-23T00:27:41.504Z,8.53
2018-12-23T00:28:41.470Z,8.56
2018-12-23T00:29:41.505Z,8.53
2018-12-23T00:30:41.557Z,8.53
2018-12-23T00:31:41.440Z,8.49
2018-12-23T00:32:41.532Z,8.57
2018-12-23T00:33:41.517Z,8.52
2018-12-23T00:34:41.484Z,8.5
2018-12-23T00:35:41.480Z,8.46
2018-12-23T00:36:41.459Z,8.41
2018-12-23T00:37:41.517Z,8.41
2018-12-23T00:38:41.528Z,8.38
2018-12-23T00:39:41.553Z,8.42
2018-12-23T00:40:41.474Z,8.36
2018-12-23T00:41:42.597Z,8.38
2018-12-23T00:42:41.470Z,8.35
2018-12-23T00:43:41.505Z,8.34
2018-12-23T00:44:41.478Z,8.23
2018-12-23T00:45:41.536Z,8.31
2018-12-23T00:46:41.467Z,8.35
2018-12-23T00:47:41.482Z,8.31
2018-12-23T00:48:41.513Z,8.28
2018-12-23T00:49:41.572Z,8.16
2018-12-23T00:50:41.501Z,8.13
2018-12-23T00:51:41.517Z,8.2
2018-12-23T00:52:41.553Z,8.16
2018-12-23T00:53:41.661Z,8.21
2018-12-23T00:54:41.510Z,8.16
2018-12-23T00:55:41.507Z,8.17
2018-12-23T00:56:41.522Z,8.17
2018-12-23T00:57:41.485Z,8.23
2018-12-23T00:58:41.491Z,8.24
2018-12-23T00:59:41.538Z,8.08
2018-12-23T01:00:41.484Z,8.16
2018-12-23T01:01:41.515Z,8.28
2018-12-23T01:02:41.491Z,8.14
2018-12-23T01:03:41.508Z,8.08
2018-12-23T01:04:41.540Z,8.18
2018-12-23T01:05:41.536Z,8.09
2018-12-23T01:06:41.505Z,8.13
2018-12-23T01:07:41.541Z,8.09
2018-12-23T01:08:41.520Z,8.03
2018-12-23T01:09:42.191Z,8.14
2018-12-23T01:10:41.545Z,8.13
2018-12-23T01:11:41.578Z,8.13
2018-12-23T01:12:41.564Z,8.17
2018-12-23T01:13:41.554Z,8.17
2018-12-23T01:14:41.526Z,8.16
2018-12-23T01:15:41.528Z,8.09
2018-12-23T01:16:41.518Z,8.09
2018-12-23T01:17:41.518Z,8.18
2018-12-23T01:18:41.525Z,8.13
2018-12-23T01:19:41.542Z,8.14
2018-12-23T01:20:41.578Z,8.13
2018-12-23T01:21:41.657Z,8.11
2018-12-23T01:22:41.517Z,8.13
2018-12-23T01:23:41.541Z,8.24
2018-12-23T01:24:41.538Z,8.2
2018-12-23T01:25:41.505Z,8.11
2018-12-23T01:26:41.549Z,8.14
2018-12-23T01:27:41.523Z,8.17
2018-12-23T01:28:41.513Z,8.2
2018-12-23T01:29:41.524Z,8.18
2018-12-23T01:30:41.511Z,8.18
2018-12-23T01:31:41.534Z,8.18
2018-12-23T01:32:41.579Z,8.18
2018-12-23T01:33:41.558Z,8.2
2018-12-23T01:34:43.021Z,8.16
2018-12-23T01:35:47.587Z,8.14
2018-12-23T01:36:44.794Z,8.16
2018-12-23T01:37:41.523Z,8.14
2018-12-23T01:38:41.523Z,8.17
2018-12-23T01:39:41.601Z,8.16
2018-12-23T01:40:50.684Z,8.24
2018-12-23T01:41:41.655Z,8.26
2018-12-23T01:42:41.514Z,8.13
2018-12-23T01:43:41.544Z,8.16
2018-12-23T01:44:41.574Z,8.06
2018-12-23T01:45:41.538Z,8.14
2018-12-23T01:46:41.602Z,8.11
2018-12-23T01:47:41.603Z,8.11
2018-12-23T01:48:41.577Z,8.17
2018-12-23T01:49:41.598Z,8.14
2018-12-23T01:50:41.576Z,8.11
2018-12-23T01:51:41.535Z,8.11
2018-12-23T01:52:41.547Z,8.11
2018-12-23T01:53:41.534Z,8.03
2018-12-23T01:54:41.580Z,8.05
2018-12-23T01:55:41.573Z,8.02
2018-12-23T01:56:41.531Z,8.08
2018-12-23T01:57:41.640Z,8.03
2018-12-23T01:58:41.592Z,8.03
2018-12-23T01:59:41.590Z,8.03
2018-12-23T02:00:41.577Z,8.05
2018-12-23T02:01:41.672Z,8.01
2018-12-23T02:02:41.593Z,8.13
2018-12-23T02:03:41.923Z,8.08
2018-12-23T02:04:41.679Z,8.06
2018-12-23T02:05:49.070Z,8.05
2018-12-23T02:06:41.600Z,8.02
2018-12-23T02:07:41.589Z,7.99
2018-12-23T02:08:41.598Z,7.9
2018-12-23T02:09:41.877Z,7.96
2018-12-23T02:10:41.626Z,7.96
2018-12-23T02:11:41.600Z,7.85
2018-12-23T02:12:41.599Z,8.01
2018-12-23T02:13:41.615Z,7.98
2018-12-23T02:14:41.633Z,7.88
2018-12-23T02:15:41.642Z,7.98
2018-12-23T02:16:41.945Z,7.91
2018-12-23T02:17:41.643Z,7.88
2018-12-23T02:18:41.593Z,7.95
2018-12-23T02:19:41.668Z,7.83
2018-12-23T02:20:41.703Z,7.91
2018-12-23T02:21:41.668Z,7.83
2018-12-23T02:22:41.621Z,7.84
2018-12-23T02:23:41.629Z,7.8
2018-12-23T02:24:41.613Z,7.78
2018-12-23T02:25:41.696Z,7.83
2018-12-23T02:26:41.651Z,7.77
2018-12-23T02:27:41.676Z,7.74
2018-12-23T02:28:41.577Z,7.84
2018-12-23T02:29:41.631Z,7.8
2018-12-23T02:30:41.615Z,7.66
2018-12-23T02:31:41.627Z,7.74
2018-12-23T02:32:41.653Z,7.78
2018-12-23T02:33:41.653Z,7.77
2018-12-23T02:34:41.604Z,7.74
2018-12-23T02:35:41.631Z,7.78
2018-12-23T02:36:41.664Z,7.67
2018-12-23T02:37:41.632Z,7.72
2018-12-23T02:38:41.677Z,7.84
2018-12-23T02:39:41.648Z,7.64
2018-12-23T02:40:41.585Z,7.66
2018-12-23T02:41:41.626Z,7.59
2018-12-23T02:42:41.666Z,7.7
2018-12-23T02:43:41.675Z,7.74
2018-12-23T02:44:41.629Z,7.7
2018-12-23T02:45:41.621Z,7.69
2018-12-23T02:46:41.675Z,7.61
2018-12-23T02:47:41.649Z,7.67
2018-12-23T02:48:41.719Z,7.7
2018-12-23T02:49:41.713Z,7.64
2018-12-23T02:50:41.652Z,7.72
2018-12-23T02:51:41.625Z,7.72
2018-12-23T02:52:41.646Z,7.72
2018-12-23T02:53:41.791Z,7.7
2018-12-23T02:54:41.703Z,7.55
2018-12-23T02:55:41.660Z,7.64
2018-12-23T02:56:41.697Z,7.58
2018-12-23T02:57:41.739Z,7.61
2018-12-23T02:58:41.705Z,7.59
2018-12-23T02:59:41.705Z,7.53
2018-12-23T03:00:41.674Z,7.59
2018-12-23T03:01:41.687Z,7.56
2018-12-23T03:02:41.723Z,7.55
2018-12-23T03:03:41.682Z,7.53
2018-12-23T03:04:41.852Z,7.61
2018-12-23T03:05:41.642Z,7.56
2018-12-23T03:06:41.668Z,7.5
2018-12-23T03:07:41.694Z,7.5
2018-12-23T03:08:41.673Z,7.61
2018-12-23T03:09:41.784Z,7.48
2018-12-23T03:10:41.740Z,7.48
2018-12-23T03:11:41.697Z,7.53
2018-12-23T03:12:41.650Z,7.48
2018-12-23T03:13:41.648Z,7.48
2018-12-23T03:14:41.676Z,7.55
2018-12-23T03:15:41.709Z,7.51
2018-12-23T03:16:41.662Z,7.51
2018-12-23T03:17:41.658Z,7.43
2018-12-23T03:18:41.674Z,7.46
2018-12-23T03:19:41.673Z,7.41
2018-12-23T03:20:41.691Z,7.4
2018-12-23T03:21:41.903Z,7.37
2018-12-23T03:22:41.700Z,7.32
2018-12-23T03:23:41.698Z,7.37
2018-12-23T03:24:41.779Z,7.19
2018-12-23T03:25:41.681Z,7.26
2018-12-23T03:30:58.957Z,7.29
2018-12-23T03:31:11.724Z,7.13
2018-12-23T03:32:11.714Z,7.21
2018-12-23T03:33:11.788Z,7.23
2018-12-23T03:34:11.751Z,7.18
2018-12-23T03:35:11.734Z,7.04
2018-12-23T03:36:20.770Z,6.97
2018-12-23T03:37:11.730Z,7.15
2018-12-23T03:38:11.786Z,7.1
2018-12-23T03:39:11.707Z,7.14
2018-12-23T03:40:11.767Z,7.18
2018-12-23T03:41:11.775Z,7.14
2018-12-23T03:42:11.724Z,7.07
2018-12-23T03:43:11.767Z,7.1
2018-12-23T03:44:11.729Z,7.1
2018-12-23T03:45:11.714Z,7.13
2018-12-23T03:46:11.790Z,7.18
2018-12-23T03:47:11.721Z,7.19
2018-12-23T03:48:11.718Z,7.11
2018-12-23T03:49:13.901Z,7.18
2018-12-23T03:50:11.731Z,7.1
2018-12-23T03:51:11.691Z,7.03
2018-12-23T03:52:11.744Z,7.23
2018-12-23T03:53:11.711Z,7.15
2018-12-23T03:54:11.760Z,7.13
2018-12-23T03:55:11.933Z,7.13
2018-12-23T03:56:11.748Z,7.23
2018-12-23T03:57:11.748Z,7.23
2018-12-23T03:58:11.720Z,7.18
2018-12-23T03:59:11.727Z,7.23
2018-12-23T04:00:11.731Z,7.19
2018-12-23T04:01:11.750Z,7.19
2018-12-23T04:02:11.753Z,7.14
2018-12-23T04:03:11.740Z,7.19
2018-12-23T04:04:11.732Z,7.21
2018-12-23T04:05:11.792Z,7.21
2018-12-23T04:06:11.755Z,7.18
2018-12-23T04:07:12.054Z,7.22
2018-12-23T04:08:11.766Z,7.22
2018-12-23T04:09:11.755Z,7.25
2018-12-23T04:10:11.799Z,7.22
2018-12-23T04:11:11.784Z,7.18
2018-12-23T04:12:11.765Z,7.19
2018-12-23T04:13:11.765Z,7.26
2018-12-23T04:14:11.743Z,7.29
2018-12-23T04:15:11.770Z,7.23
2018-12-23T04:16:11.824Z,7.28
2018-12-23T04:17:11.853Z,7.26
2018-12-23T04:18:11.904Z,7.26
2018-12-23T04:19:11.823Z,7.32
2018-12-23T04:20:11.816Z,7.37
2018-12-23T04:21:11.758Z,7.23
2018-12-23T04:22:11.788Z,7.23
2018-12-23T04:23:11.745Z,7.19
2018-12-23T04:24:11.752Z,7.28
2018-12-23T04:25:11.758Z,7.11
2018-12-23T04:26:11.713Z,7.14
2018-12-23T04:27:11.792Z,7.07
2018-12-23T04:28:11.823Z,7.05
2018-12-23T04:29:11.786Z,7.14
2018-12-23T04:30:11.766Z,7.19
2018-12-23T04:31:11.797Z,7.08
2018-12-23T04:32:11.740Z,7.13
2018-12-23T04:33:11.761Z,7.23
2018-12-23T04:34:11.791Z,7.11
2018-12-23T04:35:11.782Z,7.11
2018-12-23T04:36:11.843Z,7.11
2018-12-23T04:37:11.783Z,7.19
2018-12-23T04:38:11.783Z,7.04
2018-12-23T04:39:11.851Z,7.15
2018-12-23T04:40:11.860Z,7.18
2018-12-23T04:41:11.814Z,7.15
2018-12-23T04:42:11.793Z,7.19
2018-12-23T04:43:11.816Z,7.22
2018-12-23T04:44:11.787Z,7.21
2018-12-23T04:45:11.840Z,7.22
2018-12-23T04:46:11.802Z,7.22
2018-12-23T04:47:11.789Z,7.18
2018-12-23T04:48:11.860Z,7.21
2018-12-23T04:49:11.801Z,7.14
2018-12-23T04:50:12.062Z,7.15
2018-12-23T04:51:11.892Z,7.13
2018-12-23T04:56:28.440Z,7.11
2018-12-23T04:56:41.030Z,7.13
2018-12-23T04:57:41.002Z,7.19
2018-12-23T04:58:41.046Z,7.13
2018-12-23T04:59:41.166Z,7.18
2018-12-23T05:00:41.005Z,7.15
2018-12-23T05:01:41.092Z,7.03
2018-12-23T05:02:41.043Z,7.04
2018-12-23T05:03:48.825Z,7.03
2018-12-23T05:04:41.036Z,7.07
2018-12-23T05:05:41.047Z,7.07
2018-12-23T05:06:49.121Z,7.07
2018-12-23T05:07:41.040Z,7.14
2018-12-23T05:08:41.135Z,7.07
2018-12-23T05:09:41.018Z,7.05
2018-12-23T05:10:40.995Z,7.14
2018-12-23T05:11:41.015Z,7.15
2018-12-23T05:12:41.109Z,7.19
2018-12-23T05:13:41.046Z,7.21
2018-12-23T05:14:40.998Z,7.18
2018-12-23T05:15:41.028Z,7.21
2018-12-23T05:16:41.019Z,7.18
2018-12-23T05:17:41.063Z,7.25
2018-12-23T05:18:41.075Z,7.23
2018-12-23T05:19:41.072Z,7.15
2018-12-23T05:20:41.069Z,7.19
2018-12-23T05:21:41.044Z,7.29
2018-12-23T05:22:41.061Z,7.29
2018-12-23T05:23:41.126Z,7.22
2018-12-23T05:24:41.104Z,7.22
2018-12-23T05:25:41.051Z,7.28
2018-12-23T05:26:41.040Z,7.32
2018-12-23T05:27:41.073Z,7.29
2018-12-23T05:28:41.109Z,7.41
2018-12-23T05:29:41.073Z,7.41
2018-12-23T05:30:41.086Z,7.33
2018-12-23T05:31:41.085Z,7.33
2018-12-23T05:32:41.059Z,7.39
2018-12-23T05:33:41.092Z,7.39
2018-12-23T05:34:41.197Z,7.32
2018-12-23T05:35:41.111Z,7.36
2018-12-23T05:36:41.094Z,7.37
2018-12-23T05:37:41.051Z,7.37
2018-12-23T05:38:41.062Z,7.33
2018-12-23T05:39:41.127Z,7.37
2018-12-23T05:40:41.105Z,7.36
2018-12-23T05:41:41.124Z,7.29
2018-12-23T05:42:41.162Z,7.37
2018-12-23T05:43:41.042Z,7.37
2018-12-23T05:44:41.058Z,7.23
2018-12-23T05:45:41.129Z,7.28
2018-12-23T05:46:41.084Z,7.39
2018-12-23T05:47:41.180Z,7.31
2018-12-23T05:48:41.121Z,7.36
2018-12-23T05:49:41.105Z,7.33
2018-12-23T05:50:41.124Z,7.31
2018-12-23T05:51:41.078Z,7.29
2018-12-23T05:52:41.065Z,7.4
2018-12-23T05:53:41.074Z,7.36
2018-12-23T05:54:41.188Z,7.4
2018-12-23T05:55:41.102Z,7.4
2018-12-23T05:56:41.084Z,7.4
2018-12-23T06:01:58.640Z,7.43
2018-12-23T06:02:11.222Z,7.55
2018-12-23T06:03:11.231Z,7.5
2018-12-23T06:04:11.854Z,7.37
2018-12-23T06:05:11.270Z,7.48
2018-12-23T06:06:11.216Z,7.46
2018-12-23T06:07:11.289Z,7.44
2018-12-23T06:08:11.226Z,7.43
2018-12-23T06:09:11.348Z,7.44
2018-12-23T06:10:11.326Z,7.4
2018-12-23T06:11:11.315Z,7.46
2018-12-23T06:12:11.325Z,7.44
2018-12-23T06:13:11.371Z,7.48
2018-12-23T06:14:11.264Z,7.5
2018-12-23T06:18:41.283Z,7.5
2018-12-23T06:19:41.379Z,7.51
2018-12-23T06:20:41.269Z,7.44
2018-12-23T06:21:41.403Z,7.41
2018-12-23T06:22:41.258Z,7.46
2018-12-23T06:23:41.248Z,7.41
2018-12-23T06:24:41.378Z,7.44
2018-12-23T06:25:41.281Z,7.47
2018-12-23T06:26:41.336Z,7.5
2018-12-23T06:27:41.296Z,7.51
2018-12-23T06:28:41.350Z,7.46
2018-12-23T06:29:41.299Z,7.5
2018-12-23T06:31:03.069Z,7.53
2018-12-23T06:31:41.329Z,7.64
2018-12-23T06:32:41.345Z,7.48
2018-12-23T06:33:41.437Z,7.56
2018-12-23T06:34:41.377Z,7.58
2018-12-23T06:35:41.373Z,7.56
2018-12-23T06:36:41.338Z,7.48
2018-12-23T06:37:41.343Z,7.64
2018-12-23T06:38:41.350Z,7.56
2018-12-23T06:39:41.333Z,7.56
2018-12-23T06:40:41.363Z,7.51
2018-12-23T06:41:41.478Z,7.66
2018-12-23T06:42:41.353Z,7.7
2018-12-23T06:43:41.343Z,7.59
2018-12-23T06:44:41.277Z,7.67
2018-12-23T06:45:41.328Z,7.66
2018-12-23T06:46:41.314Z,7.64
2018-12-23T06:47:41.348Z,7.7
2018-12-23T06:48:41.487Z,7.59
2018-12-23T06:49:41.384Z,7.59
2018-12-23T06:50:41.361Z,7.7
2018-12-23T06:51:42.257Z,7.7
2018-12-23T06:52:41.348Z,7.7
2018-12-23T06:53:41.464Z,7.69
2018-12-23T06:54:41.357Z,7.67
2018-12-23T06:55:41.424Z,7.75
2018-12-23T06:56:41.342Z,7.74
2018-12-23T06:57:41.334Z,7.77
2018-12-23T06:58:41.340Z,7.64
2018-12-23T06:59:41.386Z,7.7
2018-12-23T07:00:41.679Z,7.8
2018-12-23T07:01:41.432Z,7.81
2018-12-23T07:02:41.354Z,7.85
2018-12-23T07:03:41.331Z,7.81
2018-12-23T07:04:41.597Z,7.81
2018-12-23T07:09:11.458Z,7.83
2018-12-23T07:10:11.496Z,7.91
2018-12-23T07:11:11.433Z,7.85
2018-12-23T07:12:11.448Z,7.8
2018-12-23T07:13:11.438Z,7.77
2018-12-23T07:14:11.507Z,7.8
2018-12-23T07:15:11.487Z,7.91
2018-12-23T07:16:11.484Z,7.87
2018-12-23T07:17:11.521Z,7.93
2018-12-23T07:18:11.415Z,7.91
2018-12-23T07:19:11.449Z,7.99
2018-12-23T07:20:11.497Z,7.88
2018-12-23T07:21:11.480Z,7.88
2018-12-23T07:30:00.401Z,8.05
2018-12-23T07:31:00.335Z,7.99
2018-12-23T07:32:00.447Z,7.96
2018-12-23T07:33:00.356Z,8.02
2018-12-23T07:34:00.416Z,8.05
2018-12-23T07:35:00.381Z,8.02
2018-12-23T07:36:00.463Z,8.06
2018-12-23T07:37:00.471Z,8.02
2018-12-23T07:38:00.352Z,8.01
2018-12-23T07:39:01.063Z,8.05
2018-12-23T07:40:00.362Z,8.05
2018-12-23T07:41:00.778Z,7.93
2018-12-23T07:42:00.457Z,8.03
2018-12-23T07:43:00.458Z,7.93
2018-12-23T07:44:00.468Z,7.98
2018-12-23T07:45:00.404Z,7.99
2018-12-23T07:46:00.406Z,7.98
2018-12-23T07:47:00.369Z,8.05
2018-12-23T07:48:00.416Z,8.05
2018-12-23T07:49:00.470Z,8.06
2018-12-23T07:50:00.389Z,7.99
2018-12-23T07:51:00.340Z,8.02
2018-12-23T07:55:29.922Z,8.02
2018-12-23T07:56:29.912Z,8.06
2018-12-23T07:57:29.906Z,8.09
2018-12-23T07:58:30.023Z,8.16
2018-12-23T07:59:29.973Z,8.09
2018-12-23T08:00:29.951Z,8.11
2018-12-23T08:01:29.928Z,8.13
2018-12-23T08:02:29.942Z,8.09
2018-12-23T08:03:30.011Z,8.14
2018-12-23T08:04:30.008Z,8.18
2018-12-23T08:05:29.936Z,8.11
2018-12-23T08:06:29.976Z,8.16
2018-12-23T08:07:36.060Z,8.21
2018-12-23T08:08:29.958Z,8.11
2018-12-23T08:09:29.917Z,8.18
2018-12-23T08:10:30.000Z,8.21
2018-12-23T08:11:30.071Z,8.17
2018-12-23T08:12:29.954Z,8.24
2018-12-23T08:13:30.004Z,8.09
2018-12-23T08:14:29.916Z,8.21
2018-12-23T08:15:29.919Z,8.17
2018-12-23T08:16:29.926Z,8.18
2018-12-23T08:17:29.922Z,8.18
2018-12-23T08:18:29.934Z,8.23
2018-12-23T08:19:29.906Z,8.23
2018-12-23T08:20:29.923Z,8.23
2018-12-23T08:21:29.972Z,8.08
2018-12-23T08:22:29.918Z,8.2
2018-12-23T08:23:29.975Z,8.32
2018-12-23T08:24:29.911Z,8.2
2018-12-23T08:25:38.766Z,8.32
2018-12-23T08:26:29.962Z,8.32
2018-12-23T08:27:29.947Z,8.31
2018-12-23T08:28:30.039Z,8.18
2018-12-23T08:29:29.980Z,8.31
2018-12-23T08:30:29.987Z,8.31
2018-12-23T08:31:30.003Z,8.38
2018-12-23T08:32:29.970Z,8.21
2018-12-23T08:33:30.026Z,8.23
2018-12-23T08:34:29.970Z,8.31
2018-12-23T08:35:30.119Z,8.28
2018-12-23T08:36:29.975Z,8.28
2018-12-23T08:37:29.976Z,8.35
2018-12-23T08:38:29.981Z,8.34
2018-12-23T08:39:30.026Z,8.35
2018-12-23T08:40:30.021Z,8.41
2018-12-23T08:41:30.019Z,8.39
2018-12-23T08:42:29.983Z,8.39
2018-12-23T08:43:29.980Z,8.42
2018-12-23T08:44:29.999Z,8.42
2018-12-23T08:45:29.938Z,8.44
2018-12-23T08:46:29.983Z,8.46
2018-12-23T08:47:29.979Z,8.5
2018-12-23T08:48:30.068Z,8.49
2018-12-23T08:49:30.542Z,8.52
2018-12-23T08:50:30.010Z,8.54
2018-12-23T08:51:29.995Z,8.56
2018-12-23T08:52:30.014Z,8.6
2018-12-23T08:53:29.995Z,8.59
2018-12-23T08:54:30.015Z,8.63
2018-12-23T08:55:30.015Z,8.59
2018-12-23T08:56:30.039Z,8.56
2018-12-23T08:57:29.969Z,8.63
2018-12-23T08:58:30.034Z,8.66
2018-12-23T08:59:30.095Z,8.68
2018-12-23T09:00:30.016Z,8.63
2018-12-23T09:01:30.017Z,8.74
2018-12-23T09:02:36.407Z,8.71
2018-12-23T09:03:30.375Z,8.72
2018-12-23T09:04:30.006Z,8.77
2018-12-23T09:05:30.025Z,8.72
2018-12-23T09:06:30.185Z,8.68
2018-12-23T09:07:34.058Z,8.77
2018-12-23T09:08:30.253Z,8.77
2018-12-23T09:09:30.056Z,8.82
2018-12-23T09:10:30.085Z,8.77
2018-12-23T09:11:30.047Z,8.84
2018-12-23T09:12:30.147Z,8.78
2018-12-23T09:13:30.232Z,8.81
2018-12-23T09:14:30.094Z,8.96
2018-12-23T09:15:30.126Z,8.81
2018-12-23T09:16:31.004Z,8.87
2018-12-23T09:17:30.132Z,8.89
2018-12-23T09:18:30.130Z,8.95
2018-12-23T09:19:30.369Z,8.92
2018-12-23T09:20:30.069Z,9
2018-12-23T09:21:30.144Z,8.95
2018-12-23T09:22:30.023Z,8.92
2018-12-23T09:23:30.400Z,9
2018-12-23T09:24:30.107Z,8.95
2018-12-23T09:25:30.052Z,8.95
2018-12-23T09:26:30.068Z,8.97
2018-12-23T09:27:30.076Z,9
2018-12-23T09:28:30.174Z,9.05
2018-12-23T09:29:30.154Z,9.05
2018-12-23T09:30:30.033Z,9
2018-12-23T09:31:30.077Z,9.08
2018-12-23T09:32:30.101Z,9.11
2018-12-23T09:33:30.169Z,9.12
2018-12-23T09:34:30.086Z,9.12
2018-12-23T09:35:30.095Z,9.16
2018-12-23T09:36:30.104Z,9.11
2018-12-23T09:37:30.185Z,9.13
2018-12-23T09:38:30.112Z,9.13
2018-12-23T09:39:30.119Z,9.11
2018-12-23T09:40:30.085Z,9.13
2018-12-23T09:41:30.131Z,9.18
2018-12-23T09:42:30.095Z,9.24
2018-12-23T09:43:30.091Z,9.19
2018-12-23T09:44:30.123Z,9.21
2018-12-23T09:45:30.094Z,9.22
2018-12-23T09:46:30.483Z,9.16
2018-12-23T09:47:30.095Z,9.22
2018-12-23T09:48:30.090Z,9.21
2018-12-23T09:49:30.404Z,9.26
2018-12-23T09:50:30.143Z,9.16
2018-12-23T09:51:30.059Z,9.22
2018-12-23T09:52:30.076Z,9.29
2018-12-23T09:53:30.195Z,9.27
2018-12-23T09:54:30.090Z,9.29
2018-12-23T09:55:30.102Z,9.31
2018-12-23T09:56:30.139Z,9.29
2018-12-23T09:57:30.151Z,9.31
2018-12-23T09:58:30.058Z,9.24
2018-12-23T09:59:30.084Z,9.42
2018-12-23T10:00:30.107Z,9.34
2018-12-23T10:01:30.148Z,9.44
2018-12-23T10:02:30.145Z,9.52
2018-12-23T10:03:30.128Z,9.48
2018-12-23T10:04:30.132Z,9.52
2018-12-23T10:05:30.133Z,9.51
2018-12-23T10:06:30.170Z,9.49
2018-12-23T10:07:30.177Z,9.54
2018-12-23T10:08:30.166Z,9.49
2018-12-23T10:09:30.153Z,9.42
2018-12-23T10:10:34.319Z,9.48
2018-12-23T10:11:30.552Z,9.51
2018-12-23T10:12:30.170Z,9.4
2018-12-23T10:13:30.166Z,9.51
2018-12-23T10:14:30.156Z,9.45
2018-12-23T10:15:30.166Z,9.48
2018-12-23T10:16:30.170Z,9.45
2018-12-23T10:17:30.110Z,9.48
2018-12-23T10:18:30.186Z,9.4
2018-12-23T10:19:30.132Z,9.44
2018-12-23T10:20:30.143Z,9.45
2018-12-23T10:21:30.216Z,9.36
2018-12-23T10:22:30.202Z,9.49
2018-12-23T10:23:30.423Z,9.31
2018-12-23T10:24:30.175Z,9.4
2018-12-23T10:25:30.278Z,9.26
2018-12-23T10:26:30.132Z,9.24
2018-12-23T10:27:30.215Z,9.3
2018-12-23T10:28:30.347Z,9.29
2018-12-23T10:29:31.483Z,9.29
2018-12-23T10:30:30.158Z,9.26
2018-12-23T10:31:30.138Z,9.26
2018-12-23T10:32:30.237Z,9.24
2018-12-23T10:33:30.183Z,9.29
2018-12-23T10:34:30.186Z,9.4
2018-12-23T10:35:30.192Z,9.36
2018-12-23T10:36:30.115Z,9.36
2018-12-23T10:37:30.148Z,9.51
2018-12-23T10:38:30.204Z,9.31
2018-12-23T10:39:30.210Z,9.45
2018-12-23T10:40:30.166Z,9.47
2018-12-23T10:41:30.197Z,9.52
2018-12-23T10:42:30.179Z,9.52
2018-12-23T10:43:30.148Z,9.56
2018-12-23T10:44:30.176Z,9.55
2018-12-23T10:45:30.148Z,9.58
2018-12-23T10:46:30.286Z,9.59
2018-12-23T10:47:30.169Z,9.56
2018-12-23T10:48:30.984Z,9.56
2018-12-23T10:49:30.131Z,9.58
2018-12-23T10:50:30.217Z,9.51
2018-12-23T10:51:30.164Z,9.56
2018-12-23T10:52:30.242Z,9.58
2018-12-23T10:53:30.274Z,9.62
2018-12-23T10:54:30.400Z,9.7
2018-12-23T10:55:30.165Z,9.69
2018-12-23T10:56:30.327Z,9.66
2018-12-23T10:57:30.385Z,9.66
2018-12-23T10:58:30.361Z,9.67
2018-12-23T10:59:30.562Z,9.7
2018-12-23T11:00:30.387Z,9.67
2018-12-23T11:01:31.022Z,9.64
2018-12-23T11:02:30.222Z,9.69
2018-12-23T11:03:30.201Z,9.74
2018-12-23T11:04:30.225Z,9.69
2018-12-23T11:05:30.217Z,9.81
2018-12-23T11:06:30.555Z,9.7
2018-12-23T11:07:30.229Z,9.81
2018-12-23T11:08:32.974Z,9.82
2018-12-23T11:09:30.230Z,9.76
2018-12-23T11:10:30.211Z,9.84
2018-12-23T11:11:30.259Z,9.77
2018-12-23T11:12:30.175Z,9.87
2018-12-23T11:13:30.313Z,9.81
2018-12-23T11:14:30.249Z,9.84
2018-12-23T11:15:30.259Z,9.84
2018-12-23T11:16:30.281Z,9.69
2018-12-23T11:17:30.210Z,9.82
2018-12-23T11:18:30.215Z,9.9
2018-12-23T11:19:30.259Z,9.94
2018-12-23T11:20:30.255Z,9.85
2018-12-23T11:21:30.221Z,9.95
2018-12-23T11:22:30.266Z,9.9
2018-12-23T11:23:30.222Z,9.87
2018-12-23T11:24:30.239Z,9.84
2018-12-23T11:25:30.225Z,9.87
2018-12-23T11:26:30.228Z,10.02
2018-12-23T11:27:30.244Z,9.94
2018-12-23T11:28:30.550Z,9.84
2018-12-23T11:29:30.336Z,9.97
2018-12-23T11:30:30.278Z,9.85
2018-12-23T11:31:30.297Z,9.85
2018-12-23T11:32:30.235Z,9.87
2018-12-23T11:33:30.238Z,9.97
2018-12-23T11:34:30.382Z,10
2018-12-23T11:35:30.285Z,9.95
2018-12-23T11:36:30.320Z,9.91
2018-12-23T11:37:30.341Z,9.87
2018-12-23T11:38:38.383Z,9.92
2018-12-23T11:39:30.306Z,9.95
2018-12-23T11:40:30.265Z,9.99
2018-12-23T11:41:30.314Z,10
2018-12-23T11:42:30.405Z,9.99
2018-12-23T11:43:30.378Z,9.97
2018-12-23T11:44:30.281Z,9.91
2018-12-23T11:45:30.403Z,9.95
2018-12-23T11:46:30.331Z,10.02
2018-12-23T11:47:30.304Z,10.02
2018-12-23T11:48:30.364Z,10.07
2018-12-23T11:49:30.318Z,10
2018-12-23T11:50:30.311Z,10.03
2018-12-23T11:51:30.334Z,10.1
2018-12-23T11:52:30.419Z,10
2018-12-23T11:53:30.293Z,10.1
2018-12-23T11:54:30.363Z,10.03
2018-12-23T11:55:30.345Z,10.12
2018-12-23T11:56:30.327Z,10.07
2018-12-23T11:57:30.299Z,10.09
2018-12-23T11:58:30.329Z,10.06
2018-12-23T11:59:30.413Z,10.18
2018-12-23T12:00:30.322Z,10.12
2018-12-23T12:01:30.627Z,10.05
2018-12-23T12:02:30.418Z,10.07
2018-12-23T12:03:30.578Z,10.07
2018-12-23T12:04:30.375Z,10.05
2018-12-23T12:05:30.375Z,10.13
2018-12-23T12:06:30.329Z,10.05
2018-12-23T12:07:30.361Z,10.12
2018-12-23T12:08:30.340Z,10.1
2018-12-23T12:09:30.467Z,10.06
2018-12-23T12:10:30.328Z,10.09
2018-12-23T12:11:30.553Z,10.03
2018-12-23T12:12:30.375Z,10.02
2018-12-23T12:13:30.339Z,10.1
2018-12-23T12:14:30.344Z,9.97
2018-12-23T12:15:30.388Z,10.02
2018-12-23T12:16:30.302Z,10.02
2018-12-23T12:17:31.353Z,10.06
2018-12-23T12:18:30.377Z,10.05
2018-12-23T12:19:30.410Z,10.02
2018-12-23T12:20:30.389Z,10.02
2018-12-23T12:21:30.398Z,9.97
2018-12-23T12:22:30.297Z,10.12
2018-12-23T12:23:30.924Z,9.95
2018-12-23T12:24:30.398Z,10
2018-12-23T12:25:30.463Z,10.02
2018-12-23T12:26:30.411Z,10.18
2018-12-23T12:27:30.418Z,10.06
2018-12-23T12:28:30.570Z,10.09
2018-12-23T12:29:30.432Z,10.03
2018-12-23T12:30:30.705Z,9.97
2018-12-23T12:31:30.378Z,10.02
2018-12-23T12:32:30.484Z,9.99
2018-12-23T12:33:30.358Z,9.97
2018-12-23T12:34:30.362Z,10
2018-12-23T12:35:30.423Z,10.02
2018-12-23T12:36:30.415Z,9.94
2018-12-23T12:37:30.485Z,10.02
2018-12-23T12:38:30.448Z,10
2018-12-23T12:39:30.359Z,10.03
2018-12-23T12:40:30.384Z,10.1
2018-12-23T12:41:30.349Z,10.06
2018-12-23T12:42:30.465Z,10.1
2018-12-23T12:43:30.367Z,10.06
2018-12-23T12:44:30.872Z,10.02
2018-12-23T12:45:30.903Z,10.02
2018-12-23T12:46:30.807Z,10.05
2018-12-23T12:47:30.940Z,10
2018-12-23T12:48:30.798Z,10
2018-12-23T12:49:30.569Z,10.12
2018-12-23T12:50:30.578Z,10.12
2018-12-23T12:51:30.516Z,10.21
2018-12-23T12:52:30.537Z,10.12
2018-12-23T12:57:00.043Z,10.12
2018-12-23T12:58:00.214Z,10.13
2018-12-23T12:58:59.961Z,10.2
2018-12-23T12:59:59.958Z,10.2
2018-12-23T13:01:00.117Z,10.1
2018-12-23T13:02:00.288Z,10.1
2018-12-23T13:02:59.942Z,10.33
2018-12-23T13:04:02.116Z,10.23
2018-12-23T13:04:59.890Z,10.15
2018-12-23T13:05:59.901Z,10.15
2018-12-23T13:06:59.903Z,10.18
2018-12-23T13:08:00.135Z,10.25
2018-12-23T13:09:06.497Z,10.17
2018-12-23T13:09:59.986Z,10.18
2018-12-23T13:10:59.950Z,10.13
2018-12-23T13:11:59.937Z,10.15
2018-12-23T13:19:26.639Z,9.99
2018-12-23T13:19:39.580Z,10.05
2018-12-23T13:20:39.604Z,9.94
2018-12-23T13:21:39.607Z,10.02
2018-12-23T13:22:39.568Z,10
2018-12-23T13:23:39.627Z,9.95
2018-12-23T13:24:39.556Z,9.97
2018-12-23T13:25:39.618Z,10.02
2018-12-23T13:26:39.729Z,9.99
2018-12-23T13:27:40.158Z,9.94
2018-12-23T13:28:40.024Z,9.92
2018-12-23T13:29:39.959Z,9.94
2018-12-23T13:30:40.026Z,10.06
2018-12-23T13:31:39.859Z,9.94
2018-12-23T13:32:40.224Z,9.97
2018-12-23T13:33:40.085Z,9.91
2018-12-23T13:34:40.010Z,9.94
2018-12-23T13:35:39.822Z,9.91
2018-12-23T13:36:40.456Z,9.92
2018-12-23T13:37:39.699Z,10.03
2018-12-23T13:38:39.983Z,9.85
2018-12-23T13:39:39.965Z,9.84
2018-12-23T13:40:39.826Z,9.84
2018-12-23T13:41:40.014Z,9.9
2018-12-23T13:42:39.807Z,9.97
2018-12-23T13:43:39.731Z,9.85
2018-12-23T13:44:39.761Z,9.97
2018-12-23T13:45:40.056Z,9.9
2018-12-23T13:46:40.007Z,9.85
2018-12-23T13:47:40.151Z,9.97
2018-12-23T13:48:39.977Z,9.88
2018-12-23T13:49:39.791Z,9.84
2018-12-23T13:50:39.997Z,9.84
2018-12-23T13:51:39.773Z,9.84
2018-12-23T13:52:40.051Z,9.77
2018-12-23T13:53:39.964Z,9.82
2018-12-23T13:54:39.667Z,9.97
2018-12-23T13:55:40.059Z,9.97
2018-12-23T13:56:39.849Z,9.95
2018-12-23T13:57:39.740Z,9.97
2018-12-23T13:58:39.889Z,9.97